Kezdőlap
METAR-TAF:

METAR-TAF

Repülőterek :

Kirksville Regional Airport

Kirksville, Missouri, Amerikai Egyesült Államok

földrajzi szélesség: 40-05-50N, földrajzi hosszúság: 092-32-36W, magasság: 294 m

Jelenlegi meteorológiai megfigyelések

A jelentés 59 perccel ezelõtt készült, 09:55 UTC
Dél-délnyugati szél 4 kt
Hőmérséklet 8°C
Páratartalom 93%
Légköri nyomás 1001 hPa
Látótávolság: 14.5 km
Borult 1500 lábon

METAR: KIRK 090955Z AUTO 20004KT 9SM OVC015 08/07 A2957 RMK AO2 SLP020 T00830072

Idő: 04:54 (10:54 UTC)


TAF: hiányzik

Meteorológiai megfigyelések és előrejelzések több, mint 4000 repülőtéren (METAR és TAF jelentéseket).

A térképen piros és sárga pontok jelzik az elérhető meteorológiai állomásokat.

Mozgassa az egeret a pont fölött, hogy megjelenjen az állomás neve.

Azután kattintson az időjárási megfigyelések és előrejelzések megtekintéséhez.

A térkép megváltoztatása: kattintson a fekete keresztel jelölt zöld gombra ráközelítéshez, a vonallal jelölt zöld gombra távolításhoz, vagy a zöld nyilakra a szomszédos térképek eléréséhez.


METAR-TAF: